createdAt,value
2023-03-15T00:01:46.750Z,2.49
2023-03-15T00:04:16.636Z,2.46
2023-03-15T00:06:43.412Z,2.47
2023-03-15T00:09:10.073Z,2.47
2023-03-15T00:11:36.734Z,2.50
2023-03-15T00:14:03.634Z,2.57
2023-03-15T00:16:32.829Z,2.47
2023-03-15T00:18:59.661Z,2.47
2023-03-15T00:21:26.538Z,2.51
2023-03-15T00:23:53.177Z,2.38
2023-03-15T00:26:19.823Z,2.25
2023-03-15T00:28:46.450Z,2.22
2023-03-15T00:31:15.042Z,2.11
2023-03-15T00:33:42.149Z,2.01
2023-03-15T00:36:09.780Z,2.01
2023-03-15T00:38:38.274Z,1.89
2023-03-15T00:41:13.352Z,1.91
2023-03-15T00:43:40.509Z,1.88
2023-03-15T00:46:08.273Z,1.86
2023-03-15T00:48:35.601Z,1.83
2023-03-15T00:51:09.658Z,2.03
2023-03-15T00:53:37.928Z,1.92
2023-03-15T00:56:19.374Z,1.99
2023-03-15T00:58:46.160Z,2.02
2023-03-15T01:01:23.655Z,1.86
2023-03-15T01:03:51.208Z,1.83
2023-03-15T01:06:21.188Z,2.00
2023-03-15T01:08:48.538Z,1.93
2023-03-15T01:11:22.317Z,1.85
2023-03-15T01:13:48.948Z,1.86
2023-03-15T01:16:15.840Z,1.89
2023-03-15T01:18:42.667Z,1.86
2023-03-15T01:21:11.824Z,1.91
2023-03-15T01:23:38.925Z,1.89
2023-03-15T01:26:07.985Z,1.96
2023-03-15T01:28:34.687Z,2.06
2023-03-15T01:31:01.480Z,2.13
2023-03-15T01:33:28.943Z,2.04
2023-03-15T01:36:04.423Z,2.05
2023-03-15T01:38:31.160Z,2.12
2023-03-15T01:40:58.080Z,2.04
2023-03-15T01:43:27.233Z,2.13
2023-03-15T01:46:01.706Z,2.11
2023-03-15T01:48:35.630Z,2.17
2023-03-15T01:51:08.513Z,2.10
2023-03-15T01:53:36.841Z,2.13
2023-03-15T01:56:05.001Z,2.09
2023-03-15T01:58:35.495Z,2.04
2023-03-15T02:01:03.605Z,1.99
2023-03-15T02:03:36.265Z,1.98
2023-03-15T02:06:07.936Z,1.95
2023-03-15T02:08:42.366Z,2.01
2023-03-15T02:11:09.238Z,1.95
2023-03-15T02:13:36.426Z,2.03
2023-03-15T02:16:06.802Z,1.93
2023-03-15T02:18:36.319Z,1.96
2023-03-15T02:21:52.598Z,1.88
2023-03-15T02:25:08.920Z,1.83
2023-03-15T02:27:37.016Z,1.88
2023-03-15T02:30:05.180Z,1.95
2023-03-15T02:32:32.249Z,1.96
2023-03-15T02:34:59.284Z,1.86
2023-03-15T02:37:26.020Z,1.84
2023-03-15T02:39:52.737Z,1.75
2023-03-15T02:42:20.691Z,1.76
2023-03-15T02:44:49.110Z,1.71
2023-03-15T02:47:27.672Z,1.68
2023-03-15T02:49:54.668Z,1.66
2023-03-15T02:52:22.792Z,1.69
2023-03-15T02:54:50.150Z,1.71
2023-03-15T02:57:18.443Z,1.83
2023-03-15T02:59:45.325Z,1.77
2023-03-15T03:02:12.629Z,1.78
2023-03-15T03:04:39.776Z,1.90
2023-03-15T03:07:06.428Z,1.75
2023-03-15T03:09:33.219Z,1.67
2023-03-15T03:11:59.873Z,1.59
2023-03-15T03:14:26.595Z,1.48
2023-03-15T03:16:57.404Z,1.44
2023-03-15T03:19:25.746Z,1.38
2023-03-15T03:21:53.569Z,1.30
2023-03-15T03:24:21.180Z,1.22
2023-03-15T03:26:47.876Z,1.16
2023-03-15T03:29:18.035Z,1.13
2023-03-15T03:31:45.232Z,1.12
2023-03-15T03:34:15.520Z,1.02
2023-03-15T03:36:45.356Z,1.01
2023-03-15T03:39:12.110Z,0.96
2023-03-15T03:41:38.797Z,0.86
2023-03-15T03:44:05.468Z,0.90
2023-03-15T03:46:32.290Z,0.86
2023-03-15T03:48:59.049Z,0.81
2023-03-15T03:51:25.873Z,0.88
2023-03-15T03:53:52.530Z,0.80
2023-03-15T03:56:19.398Z,0.69
2023-03-15T03:58:46.075Z,0.76
2023-03-15T04:01:12.751Z,0.73
2023-03-15T04:03:39.380Z,0.66
2023-03-15T04:06:06.095Z,0.58
2023-03-15T04:08:35.044Z,0.63
2023-03-15T04:11:04.177Z,0.63
2023-03-15T04:13:31.369Z,0.73
2023-03-15T04:15:58.219Z,0.76
2023-03-15T04:18:25.095Z,0.83
2023-03-15T04:20:54.657Z,0.88
2023-03-15T04:23:23.549Z,0.91
2023-03-15T04:25:55.330Z,0.98
2023-03-15T04:28:22.917Z,0.92
2023-03-15T04:30:51.165Z,0.89
2023-03-15T04:33:17.870Z,0.80
2023-03-15T04:35:44.632Z,0.82
2023-03-15T04:38:11.496Z,0.83
2023-03-15T04:40:38.303Z,0.79
2023-03-15T04:43:05.771Z,0.82
2023-03-15T04:45:32.903Z,0.73
2023-03-15T04:48:01.620Z,0.81
2023-03-15T04:50:30.393Z,0.67
2023-03-15T04:52:59.648Z,0.73
2023-03-15T04:55:26.682Z,0.68
2023-03-15T04:57:53.731Z,0.62
2023-03-15T05:00:21.728Z,0.66
2023-03-15T05:02:54.735Z,0.61
2023-03-15T05:05:23.792Z,0.51
2023-03-15T05:07:51.223Z,0.54
2023-03-15T05:10:18.183Z,0.57
2023-03-15T05:12:44.924Z,0.58
2023-03-15T05:15:12.266Z,0.50
2023-03-15T05:17:39.002Z,0.49
2023-03-15T05:20:13.512Z,0.47
2023-03-15T05:22:41.029Z,0.54
2023-03-15T05:25:09.100Z,0.56
2023-03-15T05:27:36.443Z,0.62
2023-03-15T05:30:04.943Z,0.64
2023-03-15T05:32:34.632Z,0.60
2023-03-15T05:35:01.993Z,0.67
2023-03-15T05:37:28.953Z,0.67
2023-03-15T05:39:56.008Z,0.75
2023-03-15T05:42:26.194Z,0.88
2023-03-15T05:44:57.105Z,0.91
2023-03-15T05:47:24.001Z,0.95
2023-03-15T05:49:50.916Z,1.02
2023-03-15T05:52:17.613Z,1.00
2023-03-15T05:54:44.535Z,1.03
2023-03-15T05:57:11.598Z,1.05
2023-03-15T05:59:38.342Z,1.08
2023-03-15T06:02:05.070Z,1.16
2023-03-15T06:04:31.934Z,1.24
2023-03-15T06:06:58.642Z,1.33
2023-03-15T06:09:25.367Z,1.50
2023-03-15T06:11:52.486Z,1.41
2023-03-15T06:14:19.287Z,1.40
2023-03-15T06:16:46.047Z,1.41
2023-03-15T06:19:12.871Z,1.37
2023-03-15T06:21:39.531Z,1.34
2023-03-15T06:24:06.744Z,1.28
2023-03-15T06:26:33.409Z,1.15
2023-03-15T06:29:00.197Z,1.12
2023-03-15T06:31:26.849Z,1.05
2023-03-15T06:33:53.469Z,1.04
2023-03-15T06:36:20.223Z,1.15
2023-03-15T06:38:46.991Z,1.36
2023-03-15T06:41:15.651Z,1.73
2023-03-15T06:43:42.674Z,1.97
2023-03-15T06:46:09.487Z,1.84
2023-03-15T06:48:36.278Z,1.73
2023-03-15T06:51:05.844Z,1.74
2023-03-15T06:53:32.661Z,1.71
2023-03-15T06:55:59.338Z,1.61
2023-03-15T06:58:26.065Z,1.66
2023-03-15T07:00:52.758Z,1.65
2023-03-15T07:03:21.494Z,1.71
2023-03-15T07:05:52.440Z,1.77
2023-03-15T07:08:19.974Z,1.93
2023-03-15T07:10:46.767Z,1.92
2023-03-15T07:13:13.537Z,2.16
2023-03-15T07:15:40.619Z,2.02
2023-03-15T07:18:07.420Z,2.17
2023-03-15T07:20:37.377Z,2.31
2023-03-15T07:23:04.448Z,2.42
2023-03-15T07:25:31.111Z,2.56
2023-03-15T07:27:57.765Z,2.43
2023-03-15T07:30:24.846Z,2.51
2023-03-15T07:32:51.606Z,2.81
2023-03-15T07:35:18.378Z,2.90
2023-03-15T07:37:45.426Z,2.75
2023-03-15T07:40:12.727Z,2.78
2023-03-15T07:42:43.015Z,2.79
2023-03-15T07:45:10.442Z,2.94
2023-03-15T07:47:37.706Z,3.15
2023-03-15T07:50:06.735Z,3.37
2023-03-15T07:52:33.446Z,3.56
2023-03-15T07:55:00.216Z,3.28
2023-03-15T07:57:28.880Z,3.32
2023-03-15T07:59:56.181Z,3.08
2023-03-15T08:02:26.221Z,3.16
2023-03-15T08:04:53.301Z,3.28
2023-03-15T08:07:19.986Z,3.37
2023-03-15T08:09:46.748Z,3.29
2023-03-15T08:12:13.737Z,3.43
2023-03-15T08:14:40.381Z,3.30
2023-03-15T08:17:07.272Z,3.27
2023-03-15T08:19:33.923Z,3.00
2023-03-15T08:22:00.674Z,2.76
2023-03-15T08:24:27.525Z,2.48
2023-03-15T08:26:54.202Z,2.31
2023-03-15T08:29:21.000Z,2.25
2023-03-15T08:31:47.732Z,2.21
2023-03-15T08:34:15.302Z,2.30
2023-03-15T08:36:42.681Z,2.75
2023-03-15T08:39:09.421Z,3.17
2023-03-15T08:41:36.134Z,3.46
2023-03-15T08:44:02.833Z,3.51
2023-03-15T08:46:33.655Z,3.83
2023-03-15T08:49:00.527Z,3.76
2023-03-15T08:51:27.317Z,4.09
2023-03-15T08:53:54.045Z,4.00
2023-03-15T08:56:21.160Z,4.37
2023-03-15T08:58:48.397Z,4.52
2023-03-15T09:01:15.632Z,4.47
2023-03-15T09:03:42.657Z,4.67
2023-03-15T09:06:09.670Z,4.62
2023-03-15T09:08:36.818Z,4.55
2023-03-15T09:11:03.922Z,4.70
2023-03-15T09:13:30.858Z,4.84
2023-03-15T09:15:57.772Z,4.43
2023-03-15T09:18:24.537Z,4.59
2023-03-15T09:20:51.219Z,4.75
2023-03-15T09:23:17.930Z,5.08
2023-03-15T09:25:44.619Z,5.43
2023-03-15T09:28:11.902Z,4.82
2023-03-15T09:30:40.714Z,4.79
2023-03-15T09:33:07.888Z,4.73
2023-03-15T09:35:34.792Z,4.74
2023-03-15T09:38:01.697Z,4.72
2023-03-15T09:40:32.139Z,4.73
2023-03-15T09:43:30.823Z,4.48
2023-03-15T09:46:26.271Z,4.31
2023-03-15T09:49:12.649Z,4.24
2023-03-15T09:51:54.451Z,4.46
2023-03-15T09:54:29.363Z,4.81
2023-03-15T09:57:06.858Z,4.73
2023-03-15T09:59:39.883Z,4.82
2023-03-15T10:02:31.181Z,4.87
2023-03-15T10:05:03.974Z,5.27
2023-03-15T10:07:31.412Z,5.23
2023-03-15T10:09:59.060Z,5.38
2023-03-15T10:12:41.323Z,5.61
2023-03-15T10:15:36.348Z,5.70
2023-03-15T10:18:18.277Z,5.74
2023-03-15T10:20:53.644Z,5.46
2023-03-15T10:23:28.828Z,5.34
2023-03-15T10:25:56.012Z,5.14
2023-03-15T10:28:30.608Z,5.19
2023-03-15T10:31:01.316Z,5.74
2023-03-15T10:33:34.611Z,5.73
2023-03-15T10:36:11.610Z,6.09
2023-03-15T10:38:38.786Z,5.76
2023-03-15T10:41:06.613Z,5.69
2023-03-15T10:43:37.118Z,6.01
2023-03-15T10:46:06.989Z,5.99
2023-03-15T10:48:40.334Z,6.40
2023-03-15T10:51:21.480Z,6.36
2023-03-15T10:54:12.496Z,6.56
2023-03-15T10:56:44.534Z,6.66
2023-03-15T10:59:20.819Z,5.94
2023-03-15T11:01:49.339Z,5.77
2023-03-15T11:04:19.874Z,5.87
2023-03-15T11:06:57.639Z,6.01
2023-03-15T11:09:26.546Z,5.79
2023-03-15T11:12:04.886Z,5.63
2023-03-15T11:14:44.372Z,5.47
2023-03-15T11:17:27.009Z,4.89
2023-03-15T11:19:56.932Z,4.67
2023-03-15T11:22:24.050Z,4.34
2023-03-15T11:24:52.535Z,4.08
2023-03-15T11:27:22.280Z,4.14
2023-03-15T11:29:56.713Z,4.69
2023-03-15T11:32:26.268Z,4.59
2023-03-15T11:35:13.974Z,4.99
2023-03-15T11:37:49.847Z,5.32
2023-03-15T11:40:22.239Z,5.20
2023-03-15T11:42:57.922Z,5.47
2023-03-15T11:45:36.428Z,5.79
2023-03-15T11:48:29.388Z,5.73
2023-03-15T11:50:58.689Z,5.69
2023-03-15T11:54:02.723Z,5.85
2023-03-15T11:56:46.508Z,5.43
2023-03-15T11:59:36.677Z,5.66
2023-03-15T12:02:09.723Z,5.55
2023-03-15T12:04:36.376Z,5.62
2023-03-15T12:07:12.860Z,5.50
2023-03-15T12:09:47.376Z,5.40
2023-03-15T12:12:26.343Z,5.27
2023-03-15T12:15:19.070Z,5.56
2023-03-15T12:17:51.725Z,5.75
2023-03-15T12:20:37.831Z,5.86
2023-03-15T12:23:19.833Z,6.32
2023-03-15T12:26:08.038Z,6.27
2023-03-15T12:28:37.981Z,6.33
2023-03-15T12:31:09.178Z,6.78
2023-03-15T12:33:54.999Z,6.73
2023-03-15T12:36:35.421Z,6.57
2023-03-15T12:39:36.942Z,5.40
2023-03-15T12:42:05.006Z,4.04
2023-03-15T12:44:31.840Z,3.67
2023-03-15T12:47:18.888Z,3.63
2023-03-15T12:49:46.586Z,3.41
2023-03-15T12:52:16.040Z,3.49
2023-03-15T12:54:55.282Z,3.58
2023-03-15T12:57:30.135Z,3.60
2023-03-15T13:00:12.923Z,3.64
2023-03-15T13:02:49.960Z,4.38
2023-03-15T13:05:35.504Z,5.08
2023-03-15T13:08:45.201Z,5.20
2023-03-15T13:11:27.408Z,6.12
2023-03-15T13:13:53.998Z,6.89
2023-03-15T13:16:30.217Z,6.07
2023-03-15T13:19:14.837Z,6.28
2023-03-15T13:22:04.627Z,6.02
2023-03-15T13:24:42.847Z,6.41
2023-03-15T13:27:13.650Z,5.96
2023-03-15T13:29:40.596Z,6.36
2023-03-15T13:32:19.652Z,7.00
2023-03-15T13:34:47.329Z,6.83
2023-03-15T13:37:31.042Z,6.38
2023-03-15T13:40:02.011Z,6.05
2023-03-15T13:42:29.320Z,5.66
2023-03-15T13:45:16.273Z,5.64
2023-03-15T13:47:44.793Z,5.49
2023-03-15T13:50:20.659Z,5.54
2023-03-15T13:52:48.712Z,5.51
2023-03-15T13:55:23.448Z,5.34
2023-03-15T13:57:57.305Z,5.47
2023-03-15T14:00:25.155Z,5.83
2023-03-15T14:02:56.164Z,6.19
2023-03-15T14:05:30.985Z,6.81
2023-03-15T14:08:05.828Z,7.03
2023-03-15T14:10:37.940Z,6.71
2023-03-15T14:13:32.198Z,6.68
2023-03-15T14:16:07.651Z,6.45
2023-03-15T14:18:39.828Z,5.82
2023-03-15T14:21:18.217Z,5.90
2023-03-15T14:23:48.474Z,5.62
2023-03-15T14:26:26.955Z,5.64
2023-03-15T14:29:07.571Z,6.28
2023-03-15T14:31:46.409Z,6.24
2023-03-15T14:34:25.150Z,6.43
2023-03-15T14:36:55.612Z,6.61
2023-03-15T14:39:30.408Z,6.55
2023-03-15T14:41:57.331Z,6.67
2023-03-15T14:44:24.058Z,6.73
2023-03-15T14:46:51.074Z,6.87
2023-03-15T14:49:26.666Z,6.85
2023-03-15T14:52:02.587Z,6.69
2023-03-15T14:54:30.721Z,6.59
2023-03-15T14:56:57.504Z,6.64
2023-03-15T14:59:24.141Z,6.52
2023-03-15T15:01:55.099Z,6.57
2023-03-15T15:04:22.354Z,6.61
2023-03-15T15:06:53.026Z,6.66
2023-03-15T15:09:25.063Z,6.97
2023-03-15T15:11:52.968Z,7.14
2023-03-15T15:14:20.331Z,7.17
2023-03-15T15:16:47.239Z,7.04
2023-03-15T15:19:14.656Z,7.01
2023-03-15T15:21:42.748Z,6.71
2023-03-15T15:24:16.417Z,6.52
2023-03-15T15:26:43.840Z,6.38
2023-03-15T15:29:15.458Z,6.49
2023-03-15T15:31:42.789Z,6.46
2023-03-15T15:34:11.044Z,6.50
2023-03-15T15:36:43.371Z,6.36
2023-03-15T15:39:21.989Z,6.27
2023-03-15T15:41:49.386Z,6.31
2023-03-15T15:44:18.959Z,6.40
2023-03-15T15:46:45.744Z,6.39
2023-03-15T15:49:12.710Z,6.43
2023-03-15T15:51:49.515Z,6.45
2023-03-15T15:54:22.885Z,6.49
2023-03-15T15:56:52.959Z,6.35
2023-03-15T15:59:22.007Z,6.18
2023-03-15T16:02:00.658Z,6.16
2023-03-15T16:04:29.688Z,6.13
2023-03-15T16:06:59.417Z,6.12
2023-03-15T16:09:30.113Z,6.19
2023-03-15T16:11:57.581Z,6.10
2023-03-15T16:14:24.393Z,6.13
2023-03-15T16:16:52.123Z,6.12
2023-03-15T16:19:19.257Z,6.01
2023-03-15T16:21:51.139Z,5.97
2023-03-15T16:24:27.844Z,5.96
2023-03-15T16:27:04.556Z,5.90
2023-03-15T16:29:40.779Z,5.78
2023-03-15T16:32:17.687Z,5.66
2023-03-15T16:34:52.547Z,5.69
2023-03-15T16:37:29.469Z,5.67
2023-03-15T16:39:56.119Z,5.68
2023-03-15T16:42:26.135Z,5.61
2023-03-15T16:44:53.386Z,5.52
2023-03-15T16:47:20.883Z,5.47
2023-03-15T16:49:47.568Z,5.44
2023-03-15T16:52:16.150Z,5.41
2023-03-15T16:54:44.098Z,5.34
2023-03-15T16:57:22.745Z,5.35
2023-03-15T16:59:51.046Z,5.29
2023-03-15T17:02:20.322Z,5.13
2023-03-15T17:04:47.872Z,5.18
2023-03-15T17:07:15.835Z,5.08
2023-03-15T17:09:45.934Z,5.10
2023-03-15T17:12:22.819Z,5.10
2023-03-15T17:14:49.789Z,5.08
2023-03-15T17:17:16.495Z,4.90
2023-03-15T17:19:43.880Z,4.92
2023-03-15T17:22:11.917Z,4.94
2023-03-15T17:24:38.680Z,5.08
2023-03-15T17:27:05.553Z,5.02
2023-03-15T17:29:33.173Z,5.06
2023-03-15T17:32:00.034Z,5.06
2023-03-15T17:34:26.818Z,4.99
2023-03-15T17:36:53.676Z,5.03
2023-03-15T17:39:20.364Z,5.00
2023-03-15T17:41:47.937Z,5.03
2023-03-15T17:44:14.776Z,5.05
2023-03-15T17:46:42.918Z,4.94
2023-03-15T17:49:12.143Z,4.98
2023-03-15T17:51:39.145Z,4.94
2023-03-15T17:54:13.770Z,4.94
2023-03-15T17:56:40.614Z,4.86
2023-03-15T17:59:12.685Z,4.87
2023-03-15T18:01:43.924Z,4.84
2023-03-15T18:04:13.124Z,4.83
2023-03-15T18:06:40.463Z,4.78
2023-03-15T18:09:09.357Z,4.78
2023-03-15T18:11:36.615Z,4.77
2023-03-15T18:14:05.353Z,4.75
2023-03-15T18:16:32.482Z,4.67
2023-03-15T18:18:59.257Z,4.57
2023-03-15T18:21:27.475Z,4.55
2023-03-15T18:23:54.645Z,4.52
2023-03-15T18:26:22.829Z,4.47
2023-03-15T18:28:50.211Z,4.52
2023-03-15T18:31:21.898Z,4.50
2023-03-15T18:33:50.465Z,4.43
2023-03-15T18:36:17.642Z,4.49
2023-03-15T18:38:45.188Z,4.49
2023-03-15T18:41:13.267Z,4.40
2023-03-15T18:43:40.567Z,4.45
2023-03-15T18:46:07.414Z,4.49
2023-03-15T18:48:40.380Z,4.47
2023-03-15T18:51:10.304Z,4.38
2023-03-15T18:53:36.936Z,4.44
2023-03-15T18:56:04.997Z,4.44
2023-03-15T18:58:32.300Z,4.41
2023-03-15T19:00:59.174Z,4.34
2023-03-15T19:03:25.957Z,4.34
2023-03-15T19:05:53.582Z,4.40
2023-03-15T19:08:20.466Z,4.33
2023-03-15T19:10:49.550Z,4.43
2023-03-15T19:13:16.641Z,4.34
2023-03-15T19:15:44.196Z,4.24
2023-03-15T19:18:11.151Z,4.22
2023-03-15T19:20:38.027Z,4.12
2023-03-15T19:23:04.688Z,4.19
2023-03-15T19:25:32.372Z,4.10
2023-03-15T19:27:59.124Z,4.14
2023-03-15T19:30:26.417Z,4.04
2023-03-15T19:32:53.191Z,4.10
2023-03-15T19:35:21.393Z,4.18
2023-03-15T19:37:48.967Z,4.09
2023-03-15T19:40:17.462Z,4.14
2023-03-15T19:42:44.991Z,4.12
2023-03-15T19:45:12.140Z,4.13
2023-03-15T19:47:39.149Z,4.10
2023-03-15T19:50:07.326Z,3.92
2023-03-15T19:52:34.655Z,3.86
2023-03-15T19:55:01.350Z,3.85
2023-03-15T19:57:28.145Z,3.76
2023-03-15T19:59:54.861Z,3.65
2023-03-15T20:02:24.317Z,3.71
2023-03-15T20:04:51.137Z,3.59
2023-03-15T20:07:18.112Z,3.55
2023-03-15T20:09:45.181Z,3.48
2023-03-15T20:12:13.142Z,3.46
2023-03-15T20:14:39.886Z,3.46
2023-03-15T20:17:07.306Z,3.49
2023-03-15T20:19:34.173Z,3.41
2023-03-15T20:22:00.980Z,3.44
2023-03-15T20:24:27.624Z,3.34
2023-03-15T20:26:54.397Z,3.29
2023-03-15T20:29:22.462Z,3.20
2023-03-15T20:31:50.090Z,3.35
2023-03-15T20:34:17.425Z,3.33
2023-03-15T20:36:44.337Z,3.34
2023-03-15T20:39:11.041Z,3.31
2023-03-15T20:41:39.183Z,3.28
2023-03-15T20:44:06.051Z,3.22
2023-03-15T20:46:33.458Z,3.21
2023-03-15T20:49:00.477Z,3.22
2023-03-15T20:51:27.628Z,3.12
2023-03-15T20:53:54.373Z,3.18
2023-03-15T20:56:22.865Z,3.18
2023-03-15T20:58:49.794Z,3.13
2023-03-15T21:01:17.113Z,3.07
2023-03-15T21:03:47.219Z,3.05
2023-03-15T21:06:14.219Z,3.11
2023-03-15T21:08:42.419Z,3.03
2023-03-15T21:11:09.480Z,3.00
2023-03-15T21:13:36.262Z,2.99
2023-03-15T21:16:04.543Z,2.94
2023-03-15T21:18:32.808Z,2.94
2023-03-15T21:21:01.947Z,2.93
2023-03-15T21:23:32.930Z,2.89
2023-03-15T21:26:02.175Z,2.90
2023-03-15T21:28:29.743Z,2.93
2023-03-15T21:30:57.072Z,2.90
2023-03-15T21:33:30.250Z,2.85
2023-03-15T21:35:59.237Z,2.86
2023-03-15T21:38:31.491Z,2.95
2023-03-15T21:40:59.539Z,2.88
2023-03-15T21:43:28.212Z,2.85
2023-03-15T21:45:55.557Z,2.80
2023-03-15T21:48:23.089Z,2.72
2023-03-15T21:50:53.648Z,2.61
2023-03-15T21:53:21.542Z,2.64
2023-03-15T21:55:48.452Z,2.74
2023-03-15T21:58:15.491Z,2.69
2023-03-15T22:00:42.812Z,2.64
2023-03-15T22:03:09.717Z,2.60
2023-03-15T22:05:36.605Z,2.67
2023-03-15T22:08:03.327Z,2.54
2023-03-15T22:10:30.045Z,2.50
2023-03-15T22:12:56.772Z,2.39
2023-03-15T22:15:23.510Z,2.35
2023-03-15T22:17:51.090Z,2.33
2023-03-15T22:20:18.698Z,2.32
2023-03-15T22:22:46.830Z,2.37
2023-03-15T22:25:14.228Z,2.29
2023-03-15T22:27:41.859Z,2.18
2023-03-15T22:30:10.798Z,2.08
2023-03-15T22:32:37.566Z,1.96
2023-03-15T22:35:04.864Z,1.84
2023-03-15T22:37:34.044Z,1.79
2023-03-15T22:40:00.859Z,1.72
2023-03-15T22:42:27.686Z,1.61
2023-03-15T22:44:54.471Z,1.58
2023-03-15T22:47:21.193Z,1.42
2023-03-15T22:49:48.004Z,1.61
2023-03-15T22:52:14.849Z,1.60
2023-03-15T22:54:44.424Z,1.60
2023-03-15T22:57:11.424Z,1.67
2023-03-15T22:59:39.208Z,1.68
2023-03-15T23:02:05.941Z,1.72
2023-03-15T23:04:33.972Z,1.75
2023-03-15T23:07:01.774Z,1.75
2023-03-15T23:09:28.616Z,1.79
2023-03-15T23:11:55.372Z,1.70
2023-03-15T23:14:22.206Z,1.74
2023-03-15T23:16:49.328Z,1.84
2023-03-15T23:19:16.093Z,1.60
2023-03-15T23:21:42.762Z,1.57
2023-03-15T23:24:09.561Z,1.67
2023-03-15T23:26:37.437Z,1.65
2023-03-15T23:29:10.692Z,1.56
2023-03-15T23:31:38.988Z,1.56
2023-03-15T23:34:07.197Z,1.49
2023-03-15T23:36:35.230Z,1.45
2023-03-15T23:39:01.962Z,1.35
2023-03-15T23:41:29.148Z,1.21
2023-03-15T23:43:56.031Z,1.08
2023-03-15T23:46:24.312Z,0.96
2023-03-15T23:48:52.431Z,0.87
2023-03-15T23:51:20.145Z,0.80
2023-03-15T23:53:46.812Z,0.74
2023-03-15T23:56:13.563Z,0.67
2023-03-15T23:58:40.731Z,0.51
